createdAt,value
2023-01-15T00:01:48.456Z,100090.17
2023-01-15T00:06:51.288Z,100077.42
2023-01-15T00:11:55.137Z,100065.23
2023-01-15T00:16:57.977Z,100047.09
2023-01-15T00:22:00.832Z,100037.34
2023-01-15T00:27:24.693Z,100030.99
2023-01-15T00:32:29.869Z,100011.11
2023-01-15T00:37:32.962Z,100006.85
2023-01-15T00:42:35.840Z,99993.73
2023-01-15T00:47:44.384Z,99981.29
2023-01-15T00:52:47.790Z,99982.36
2023-01-15T00:57:50.591Z,99973.94
2023-01-15T01:02:53.344Z,99966.70
2023-01-15T01:07:56.119Z,99963.18
2023-01-15T01:12:58.947Z,99958.91
2023-01-15T01:18:02.106Z,99953.38
2023-01-15T01:23:04.933Z,99948.98
2023-01-15T01:28:07.735Z,99946.42
2023-01-15T01:33:10.551Z,99942.14
2023-01-15T01:38:13.301Z,99940.73
2023-01-15T01:43:22.071Z,99931.64
2023-01-15T01:48:30.408Z,99926.30
2023-01-15T01:53:33.267Z,99926.36
2023-01-15T01:58:36.024Z,99920.46
2023-01-15T02:03:38.886Z,99907.16
2023-01-15T02:08:42.109Z,99885.76
2023-01-15T02:14:06.331Z,99873.90
2023-01-15T02:19:36.642Z,99862.55
2023-01-15T02:25:21.193Z,99863.53
2023-01-15T02:30:44.284Z,99864.72
2023-01-15T02:35:50.669Z,99866.02
2023-01-15T02:40:55.406Z,99867.28
2023-01-15T02:45:58.691Z,99862.80
2023-01-15T02:51:08.291Z,99858.86
2023-01-15T02:56:20.675Z,99848.06
2023-01-15T03:01:51.195Z,99835.89
2023-01-15T03:07:23.333Z,99802.52
2023-01-15T03:12:33.890Z,99794.20
2023-01-15T03:17:43.690Z,99781.80
2023-01-15T03:22:46.993Z,99770.36
2023-01-15T03:27:49.895Z,99761.17
2023-01-15T03:32:54.143Z,99754.67
2023-01-15T03:37:57.337Z,99770.46
2023-01-15T03:43:20.670Z,99757.33
2023-01-15T03:48:46.876Z,99746.15
2023-01-15T03:53:56.556Z,99726.48
2023-01-15T03:59:21.874Z,99727.27
2023-01-15T04:04:26.206Z,99730.29
2023-01-15T04:09:29.044Z,99719.76
2023-01-15T04:14:32.072Z,99704.55
2023-01-15T04:19:35.014Z,99702.17
2023-01-15T04:24:38.368Z,99694.05
2023-01-15T04:29:41.214Z,99690.60
2023-01-15T04:34:44.060Z,99672.31
2023-01-15T04:39:47.848Z,99660.20
2023-01-15T04:44:50.647Z,99641.35
2023-01-15T04:49:53.884Z,99643.48
2023-01-15T04:54:56.795Z,99640.80
2023-01-15T04:59:59.853Z,99637.70
2023-01-15T05:05:02.660Z,99620.55
2023-01-15T05:10:07.299Z,99622.50
2023-01-15T05:15:10.556Z,99617.03
2023-01-15T05:20:15.034Z,99614.72
2023-01-15T05:25:17.871Z,99608.19
2023-01-15T05:30:20.784Z,99601.48
2023-01-15T05:35:23.620Z,99587.19
2023-01-15T05:40:26.442Z,99602.02
2023-01-15T05:45:29.355Z,99599.59
2023-01-15T05:50:32.207Z,99590.84
2023-01-15T05:55:35.102Z,99596.66
2023-01-15T06:00:38.000Z,99594.95
2023-01-15T06:05:40.870Z,99586.35
2023-01-15T06:10:45.743Z,99582.16
2023-01-15T06:15:48.556Z,99574.52
2023-01-15T06:20:51.441Z,99568.34
2023-01-15T06:25:54.536Z,99555.49
2023-01-15T06:30:57.309Z,99546.02
2023-01-15T06:36:11.076Z,99541.84
2023-01-15T06:41:45.791Z,99538.06
2023-01-15T06:47:09.455Z,99543.81
2023-01-15T06:52:12.261Z,99551.96
2023-01-15T06:57:15.091Z,99550.05
2023-01-15T07:02:18.670Z,99531.64
2023-01-15T07:07:21.861Z,99528.95
2023-01-15T07:12:24.695Z,99531.67
2023-01-15T07:17:28.685Z,99526.59
2023-01-15T07:22:31.934Z,99519.83
2023-01-15T07:27:34.774Z,99525.79
2023-01-15T07:32:38.010Z,99524.95
2023-01-15T07:37:40.908Z,99520.10
2023-01-15T07:43:02.420Z,99511.60
2023-01-15T07:48:28.915Z,99502.13
2023-01-15T07:53:31.716Z,99501.58
2023-01-15T07:58:34.559Z,99496.54
2023-01-15T08:03:37.820Z,99493.58
2023-01-15T08:08:40.659Z,99492.09
2023-01-15T08:14:02.199Z,99496.09
2023-01-15T08:19:05.110Z,99485.13
2023-01-15T08:24:07.977Z,99482.31
2023-01-15T08:29:10.861Z,99480.44
2023-01-15T08:34:13.706Z,99477.19
2023-01-15T08:39:16.487Z,99475.95
2023-01-15T08:44:21.639Z,99470.58
2023-01-15T08:49:24.528Z,99468.70
2023-01-15T08:54:27.477Z,99465.11
2023-01-15T08:59:30.666Z,99461.72
2023-01-15T09:04:33.602Z,99458.50
2023-01-15T09:09:36.551Z,99458.27
2023-01-15T09:14:58.463Z,99460.10
2023-01-15T09:20:06.789Z,99453.77
2023-01-15T09:25:10.155Z,99449.65
2023-01-15T09:30:21.561Z,99443.52
2023-01-15T09:35:24.434Z,99439.31
2023-01-15T09:40:57.515Z,99431.29
2023-01-15T09:46:16.708Z,99433.55
2023-01-15T09:51:35.772Z,99431.56
2023-01-15T09:56:38.720Z,99428.73
2023-01-15T10:01:41.533Z,99420.54
2023-01-15T10:07:04.350Z,99411.70
2023-01-15T10:12:35.528Z,99408.02
2023-01-15T10:17:44.265Z,99400.41
2023-01-15T10:23:31.242Z,99404.19
2023-01-15T10:28:58.479Z,99395.71
2023-01-15T10:34:37.946Z,99391.98
2023-01-15T10:40:14.747Z,99389.00
2023-01-15T10:45:26.905Z,99381.77
2023-01-15T10:50:29.743Z,99368.86
2023-01-15T10:55:41.933Z,99363.58
2023-01-15T11:00:52.721Z,99360.42
2023-01-15T11:05:57.578Z,99363.81
2023-01-15T11:11:53.614Z,99358.55
2023-01-15T11:17:08.675Z,99351.80
2023-01-15T11:22:18.456Z,99346.29
2023-01-15T11:27:25.006Z,99334.86
2023-01-15T11:32:32.875Z,99339.86
2023-01-15T11:37:35.680Z,99331.39
2023-01-15T11:42:57.533Z,99329.66
2023-01-15T11:48:19.079Z,99324.98
2023-01-15T11:53:27.766Z,99325.41
2023-01-15T11:58:34.284Z,99316.63
2023-01-15T12:03:37.214Z,99319.90
2023-01-15T12:08:56.917Z,99306.38
2023-01-15T12:14:09.973Z,99303.84
2023-01-15T12:19:37.085Z,99296.69
2023-01-15T12:25:18.980Z,99291.89
2023-01-15T12:30:40.072Z,99296.77
2023-01-15T12:35:47.141Z,99300.95
2023-01-15T12:40:57.493Z,99300.63
2023-01-15T12:46:00.357Z,99301.98
2023-01-15T12:51:04.654Z,99301.91
2023-01-15T12:56:37.524Z,99302.02
2023-01-15T13:02:17.478Z,99303.17
2023-01-15T13:08:03.987Z,99301.20
2023-01-15T13:13:17.058Z,99306.56
2023-01-15T13:19:04.298Z,99304.86
2023-01-15T13:24:19.956Z,99304.10
2023-01-15T13:30:12.997Z,99303.31
2023-01-15T13:35:34.356Z,99301.74
2023-01-15T13:40:44.392Z,99302.55
2023-01-15T13:45:50.133Z,99302.73
2023-01-15T13:50:55.041Z,99314.03
2023-01-15T13:56:06.417Z,99306.31
2023-01-15T14:01:20.572Z,99310.34
2023-01-15T14:06:23.602Z,99308.02
2023-01-15T14:11:55.247Z,99308.27
2023-01-15T14:17:12.478Z,99316.42
2023-01-15T14:22:40.138Z,99314.89
2023-01-15T14:28:02.243Z,99326.61
2023-01-15T14:33:11.141Z,99329.67
2023-01-15T14:38:19.261Z,99340.31
2023-01-15T14:43:22.592Z,99340.66
2023-01-15T14:48:28.128Z,99339.58
2023-01-15T14:53:34.233Z,99336.61
2023-01-15T14:58:49.163Z,99334.13
2023-01-15T15:04:07.115Z,99332.98
2023-01-15T15:09:13.699Z,99334.55
2023-01-15T15:14:16.577Z,99324.24
2023-01-15T15:19:40.711Z,99325.90
2023-01-15T15:24:49.807Z,99318.61
2023-01-15T15:29:52.656Z,99318.33
2023-01-15T15:34:56.105Z,99316.55
2023-01-15T15:40:05.014Z,99310.05
2023-01-15T15:45:46.659Z,99313.39
2023-01-15T15:50:49.754Z,99313.77
2023-01-15T15:55:53.288Z,99312.02
2023-01-15T16:00:57.575Z,99307.67
2023-01-15T16:06:03.390Z,99298.59
2023-01-15T16:11:09.108Z,99310.33
2023-01-15T16:16:12.008Z,99315.98
2023-01-15T16:21:22.252Z,99322.52
2023-01-15T16:26:35.027Z,99326.03
2023-01-15T16:31:37.829Z,99338.67
2023-01-15T16:36:42.238Z,99333.10
2023-01-15T16:41:45.424Z,99330.68
2023-01-15T16:46:55.759Z,99338.96
2023-01-15T16:52:00.844Z,99344.26
2023-01-15T16:57:23.782Z,99351.55
2023-01-15T17:02:29.923Z,99357.19
2023-01-15T17:07:37.409Z,99369.05
2023-01-15T17:12:40.280Z,99371.69
2023-01-15T17:17:49.474Z,99372.95
2023-01-15T17:22:52.451Z,99384.94
2023-01-15T17:27:56.041Z,99391.73
2023-01-15T17:33:03.340Z,99399.95
2023-01-15T17:38:07.523Z,99399.85
2023-01-15T17:43:15.067Z,99400.53
2023-01-15T17:48:18.516Z,99410.44
2023-01-15T17:53:22.574Z,99415.43
2023-01-15T17:58:44.009Z,99428.52
2023-01-15T18:04:08.945Z,99445.33
2023-01-15T18:09:11.695Z,99459.46
2023-01-15T18:14:14.532Z,99460.11
2023-01-15T18:19:17.410Z,99470.42
2023-01-15T18:24:22.225Z,99470.50
2023-01-15T18:29:25.500Z,99468.18
2023-01-15T18:34:28.418Z,99471.20
2023-01-15T18:39:31.526Z,99468.23
2023-01-15T18:44:53.118Z,99471.01
2023-01-15T18:49:56.279Z,99478.16
2023-01-15T18:55:00.684Z,99482.38
2023-01-15T19:00:04.128Z,99484.10
2023-01-15T19:05:07.344Z,99491.45
2023-01-15T19:10:11.878Z,99503.64
2023-01-15T19:15:36.672Z,99507.49
2023-01-15T19:20:39.555Z,99506.39
2023-01-15T19:25:45.408Z,99501.07
2023-01-15T19:31:07.800Z,99504.77
2023-01-15T19:36:11.187Z,99517.20
2023-01-15T19:41:32.718Z,99514.17
2023-01-15T19:47:07.961Z,99509.25
2023-01-15T19:52:29.213Z,99512.58
2023-01-15T19:57:32.056Z,99533.20
2023-01-15T20:02:35.013Z,99534.61
2023-01-15T20:07:38.318Z,99538.45
2023-01-15T20:12:59.825Z,99544.11
2023-01-15T20:18:02.624Z,99550.36
2023-01-15T20:23:05.845Z,99541.65
2023-01-15T20:28:08.657Z,99536.67
2023-01-15T20:33:12.098Z,99540.70
2023-01-15T20:38:19.057Z,99548.63
2023-01-15T20:43:40.597Z,99545.20
2023-01-15T20:49:01.805Z,99552.17
2023-01-15T20:54:04.766Z,99543.52
2023-01-15T20:59:07.550Z,99551.23
2023-01-15T21:04:12.612Z,99551.45
2023-01-15T21:09:16.664Z,99553.48
2023-01-15T21:14:19.502Z,99546.95
2023-01-15T21:19:23.313Z,99560.00
2023-01-15T21:24:26.405Z,99562.93
2023-01-15T21:29:29.449Z,99559.67
2023-01-15T21:34:32.288Z,99561.56
2023-01-15T21:39:35.128Z,99559.64
2023-01-15T21:44:43.464Z,99547.89
2023-01-15T21:49:46.844Z,99548.90
2023-01-15T21:54:50.186Z,99558.83
2023-01-15T21:59:53.032Z,99563.02
2023-01-15T22:04:55.824Z,99564.80
2023-01-15T22:09:58.617Z,99562.83
2023-01-15T22:15:01.393Z,99566.59
2023-01-15T22:20:06.274Z,99570.48
2023-01-15T22:25:11.912Z,99570.69
2023-01-15T22:30:16.756Z,99571.83
2023-01-15T22:35:19.627Z,99570.54
2023-01-15T22:40:22.474Z,99562.95
2023-01-15T22:45:25.347Z,99562.91
2023-01-15T22:50:28.307Z,99561.98
2023-01-15T22:55:31.148Z,99562.53
2023-01-15T23:00:34.099Z,99555.55
2023-01-15T23:05:39.829Z,99555.29
2023-01-15T23:10:45.894Z,99560.80
2023-01-15T23:15:58.718Z,99551.73
2023-01-15T23:21:04.735Z,99547.09
2023-01-15T23:26:12.977Z,99553.94
2023-01-15T23:31:15.809Z,99555.93
2023-01-15T23:36:18.758Z,99553.54
2023-01-15T23:41:44.875Z,99557.05
2023-01-15T23:46:48.232Z,99554.17
2023-01-15T23:51:51.187Z,99544.05
2023-01-15T23:56:55.141Z,99546.20
